Time;durP1;ratioP1;P1;durP2;ratioP2;P2;SDS_P1;SDS_P2;PMS_P1;PMS_P2;Temp;Humidity;BMP_temperature;BMP_pressure;BME280_temperature;BME280_humidity;BME280_pressure;Samples;Min_cycle;Max_cycle;Signal;HPM_P1;HPM_P2
2022/01/13 00:00:47;;;;;;;48.70;20.17;;;1.60;99.90;;;;;;2603530;54;20058;31
2022/01/13 00:03:21;;;;;;;43.15;20.08;;;1.60;99.90;;;;;;2603719;54;20239;31
2022/01/13 00:05:58;;;;;;;50.13;22.07;;;1.70;99.90;;;;;;2621779;46;20027;31
2022/01/13 00:08:32;;;;;;;54.08;23.65;;;1.70;99.90;;;;;;2603597;54;20253;31
2022/01/13 00:11:09;;;;;;;65.32;24.23;;;1.70;99.90;;;;;;2603495;54;20909;31
2022/01/13 00:13:50;;;;;;;50.78;20.05;;;1.70;99.90;;;;;;2603601;54;20089;31
2022/01/13 00:16:38;;;;;;;47.67;22.02;;;1.80;99.90;;;;;;2603696;54;20112;31
2022/01/13 00:19:33;;;;;;;45.05;19.70;;;1.70;99.90;;;;;;2603574;54;20053;31
2022/01/13 00:22:18;;;;;;;50.47;22.90;;;1.60;99.90;;;;;;2621901;46;20026;31
2022/01/13 00:24:56;;;;;;;51.20;20.58;;;1.70;99.90;;;;;;2603497;54;20835;31
2022/01/13 00:27:37;;;;;;;53.03;22.27;;;1.70;99.90;;;;;;2603464;54;20913;31
2022/01/13 00:30:17;;;;;;;40.78;18.20;;;1.80;99.90;;;;;;2603484;54;20026;31
2022/01/13 00:32:51;;;;;;;38.72;19.08;;;1.70;99.90;;;;;;2621716;46;20027;31
2022/01/13 00:35:27;;;;;;;32.30;16.10;;;1.70;99.90;;;;;;2603298;54;20857;31
2022/01/13 00:38:01;;;;;;;31.00;17.40;;;1.70;99.90;;;;;;2603394;54;20278;31
2022/01/13 00:40:36;;;;;;;36.00;17.98;;;1.80;99.90;;;;;;2603380;54;20059;31
2022/01/13 00:43:09;;;;;;;42.70;20.13;;;1.80;99.90;;;;;;2622031;46;20030;31
2022/01/13 00:45:49;;;;;;;39.95;19.80;;;1.80;99.90;;;;;;2622052;46;20038;31
2022/01/13 00:48:22;;;;;;;44.73;20.03;;;1.70;99.90;;;;;;2622193;46;20811;31
2022/01/13 00:50:57;;;;;;;40.95;19.33;;;1.80;99.90;;;;;;2621531;46;20904;31
2022/01/13 00:53:34;;;;;;;47.40;21.33;;;1.80;99.90;;;;;;2603345;54;20883;31
2022/01/13 00:58:49;;;;;;;42.85;20.42;;;1.80;99.90;;;;;;2603430;54;20847;31
2022/01/13 01:01:29;;;;;;;38.60;18.85;;;1.80;99.90;;;;;;2603406;54;20144;31
2022/01/13 01:04:04;;;;;;;37.97;19.02;;;1.80;99.90;;;;;;2621812;46;20086;31
2022/01/13 01:06:37;;;;;;;34.63;17.83;;;1.80;99.90;;;;;;2603116;54;22337;31
2022/01/13 01:09:15;;;;;;;37.30;17.92;;;1.80;99.90;;;;;;2622138;46;20080;31
2022/01/13 01:11:55;;;;;;;34.10;18.65;;;1.80;99.90;;;;;;2603387;54;20034;31
2022/01/13 01:14:32;;;;;;;37.35;18.45;;;1.80;99.90;;;;;;2603472;54;20882;31
2022/01/13 01:17:11;;;;;;;32.20;16.05;;;1.90;99.90;;;;;;2621856;46;20034;31
2022/01/13 01:19:51;;;;;;;34.90;18.23;;;1.80;99.90;;;;;;2603486;54;20947;31
2022/01/13 01:25:36;;;;;;;32.10;18.45;;;1.80;99.90;;;;;;2603394;54;20040;31
2022/01/13 01:28:17;;;;;;;37.15;19.73;;;1.80;99.90;;;;;;2603387;54;20627;31
2022/01/13 01:30:54;;;;;;;37.40;20.00;;;1.80;99.90;;;;;;2603082;54;19935;31
2022/01/13 01:33:31;;;;;;;39.20;20.83;;;1.80;99.90;;;;;;2701692;39;20621;31
2022/01/13 01:36:11;;;;;;;34.10;18.77;;;1.90;99.90;;;;;;2603048;54;19942;31
2022/01/13 01:38:53;;;;;;;37.13;19.77;;;1.90;99.90;;;;;;2603255;54;20045;31
2022/01/13 01:44:01;;;;;;;40.77;20.53;;;1.80;99.90;;;;;;2603064;54;20927;31
2022/01/13 01:46:39;;;;;;;39.10;20.77;;;1.80;99.90;;;;;;2720002;39;20684;31
2022/01/13 01:49:20;;;;;;;34.80;18.58;;;1.80;99.90;;;;;;2603321;54;20581;31
2022/01/13 01:54:26;;;;;;;39.22;19.38;;;1.80;99.90;;;;;;2603329;54;20031;31
2022/01/13 01:57:00;;;;;;;38.17;19.17;;;1.90;99.90;;;;;;2603043;54;20771;31
2022/01/13 02:02:07;;;;;;;37.30;17.70;;;1.80;99.90;;;;;;2603095;54;20057;31
2022/01/13 02:07:16;;;;;;;32.88;17.58;;;1.80;99.90;;;;;;2603081;54;20152;31
2022/01/13 02:09:53;;;;;;;37.47;19.23;;;1.80;99.90;;;;;;2603168;54;20549;31
2022/01/13 02:12:35;;;;;;;;;;;1.80;99.90;;;;;;2603334;54;20031;31
2022/01/13 02:21:00;;;;;;;37.50;19.25;;;1.80;99.90;;;;;;2603281;54;20026;31
2022/01/13 02:23:52;;;;;;;37.75;18.30;;;1.80;99.90;;;;;;2602926;54;20033;31
2022/01/13 02:26:30;;;;;;;37.97;20.87;;;1.80;99.90;;;;;;2621680;47;20856;31
2022/01/13 02:29:08;;;;;;;40.08;19.95;;;1.80;99.90;;;;;;2603299;54;20294;31
2022/01/13 02:31:45;;;;;;;40.58;21.63;;;1.90;99.90;;;;;;2622102;46;20082;31
2022/01/13 02:34:23;;;;;;;42.93;22.03;;;1.80;99.90;;;;;;2702250;39;20504;31
2022/01/13 02:36:59;;;;;;;45.55;22.60;;;1.80;99.90;;;;;;2603826;54;20037;31
2022/01/13 02:39:37;;;;;;;41.15;22.35;;;1.80;99.90;;;;;;2604052;54;20860;31
2022/01/13 02:42:14;;;;;;;44.90;24.70;;;1.80;99.90;;;;;;2702290;39;20477;31
2022/01/13 02:45:01;;;;;;;48.17;24.15;;;1.80;99.90;;;;;;2622104;46;20139;31
2022/01/13 02:47:59;;;;;;;;;;;1.80;99.90;;;;;;2604142;54;20030;31
2022/01/13 02:50:34;;;;;;;49.17;25.00;;;1.80;99.90;;;;;;2702570;39;20958;31
2022/01/13 02:53:09;;;;;;;52.55;26.67;;;1.90;99.90;;;;;;2622345;46;20050;31
2022/01/13 02:55:43;;;;;;;47.67;24.95;;;1.80;99.90;;;;;;2702218;39;20485;31
2022/01/13 02:58:24;;;;;;;44.42;24.92;;;1.80;99.90;;;;;;2603931;54;20046;31
2022/01/13 03:01:00;;;;;;;51.53;26.98;;;1.80;99.90;;;;;;2603573;54;20105;31
2022/01/13 03:03:36;;;;;;;54.60;25.90;;;1.80;99.90;;;;;;2603912;54;20121;31
2022/01/13 03:06:10;;;;;;;48.90;25.40;;;1.80;99.90;;;;;;2603860;54;20038;31
2022/01/13 03:08:46;;;;;;;49.80;25.77;;;1.80;99.90;;;;;;2603731;54;20573;31
2022/01/13 03:11:18;;;;;;;50.05;27.45;;;1.80;99.90;;;;;;2603693;54;20022;31
2022/01/13 03:13:57;;;;;;;48.30;26.58;;;1.80;99.90;;;;;;2603696;54;20030;31
2022/01/13 03:16:32;;;;;;;53.15;27.92;;;1.70;99.90;;;;;;2603673;54;20085;31
2022/01/13 03:19:06;;;;;;;57.35;27.52;;;1.80;99.90;;;;;;2603643;54;20048;31
2022/01/13 03:21:42;;;;;;;53.83;26.42;;;1.80;99.90;;;;;;2603817;54;20026;31
2022/01/13 03:24:18;;;;;;;42.63;24.77;;;1.80;99.90;;;;;;2603639;54;20026;31
2022/01/13 03:26:54;;;;;;;42.80;23.83;;;1.70;99.90;;;;;;2603680;54;20036;31
2022/01/13 03:29:31;;;;;;;48.15;24.75;;;1.70;99.90;;;;;;2603824;54;20033;31
2022/01/13 03:32:07;;;;;;;42.45;23.67;;;1.70;99.90;;;;;;2603474;54;21005;31
2022/01/13 03:34:41;;;;;;;44.57;24.07;;;1.70;99.90;;;;;;2603792;54;20023;31
2022/01/13 03:39:46;;;;;;;39.45;22.45;;;1.70;99.90;;;;;;2603691;54;20905;31
2022/01/13 03:42:22;;;;;;;42.08;23.05;;;1.70;99.90;;;;;;2603396;54;20034;31
2022/01/13 03:45:00;;;;;;;40.00;21.53;;;1.70;99.90;;;;;;2603582;54;20588;31
2022/01/13 03:47:36;;;;;;;39.35;22.85;;;1.60;99.90;;;;;;2603675;54;20026;31
2022/01/13 03:50:12;;;;;;;38.08;21.40;;;1.60;99.90;;;;;;2603570;54;20858;31
2022/01/13 03:53:34;;;;;;;34.65;20.20;;;1.70;99.90;;;;;;2603428;54;20105;31
2022/01/13 03:56:39;;;;;;;41.22;20.50;;;1.60;99.90;;;;;;2603252;54;20022;31
2022/01/13 03:59:37;;;;;;;37.13;19.52;;;1.70;99.90;;;;;;2603392;54;20033;31
2022/01/13 04:02:15;;;;;;;36.38;20.17;;;1.70;99.90;;;;;;2622288;46;20034;31
2022/01/13 04:04:52;;;;;;;42.58;19.70;;;1.70;99.90;;;;;;2603554;54;20030;31
2022/01/13 04:07:27;;;;;;;35.85;18.90;;;1.60;99.90;;;;;;2603626;54;20030;31
2022/01/13 04:10:26;;;;;;;29.80;16.60;;;1.60;99.90;;;;;;2603353;54;20162;31
2022/01/13 04:13:11;;;;;;;32.55;18.55;;;1.70;99.90;;;;;;2701868;39;20478;31
2022/01/13 04:15:47;;;;;;;34.08;19.23;;;1.70;99.90;;;;;;2603464;54;20121;31
2022/01/13 04:18:20;;;;;;;32.05;17.77;;;1.70;99.90;;;;;;2621721;46;20109;31
2022/01/13 04:20:58;;;;;;;37.95;19.70;;;1.70;99.90;;;;;;2603477;54;20903;31
2022/01/13 04:26:06;;;;;;;32.05;18.67;;;1.70;99.90;;;;;;2603380;54;20632;31
2022/01/13 04:28:41;;;;;;;34.15;19.95;;;1.70;99.90;;;;;;2603398;54;20022;31
2022/01/13 04:31:17;;;;;;;35.17;18.27;;;1.70;99.90;;;;;;2603510;54;20740;31
2022/01/13 04:33:55;;;;;;;31.48;19.30;;;1.80;99.90;;;;;;2603430;54;20053;31
2022/01/13 04:36:32;;;;;;;33.25;18.92;;;1.70;99.90;;;;;;2603568;54;20036;31
2022/01/13 04:39:06;;;;;;;31.70;19.23;;;1.70;99.90;;;;;;2622229;46;20723;31
2022/01/13 04:41:44;;;;;;;33.37;18.60;;;1.80;99.90;;;;;;2603395;54;20026;31
2022/01/13 04:46:52;;;;;;;36.03;19.42;;;1.80;99.90;;;;;;2701788;39;20466;31
2022/01/13 04:49:26;;;;;;;;;;;1.80;99.90;;;;;;2603756;54;20981;31
2022/01/13 04:51:58;;;;;;;38.22;19.27;;;1.80;99.90;;;;;;2621732;46;19934;31
2022/01/13 04:54:37;;;;;;;38.50;20.75;;;1.80;99.90;;;;;;2603722;54;20875;31
2022/01/13 04:57:18;;;;;;;35.20;19.70;;;1.80;99.90;;;;;;2720405;39;20579;31
2022/01/13 04:59:54;;;;;;;37.63;19.90;;;1.80;99.90;;;;;;2603361;54;20599;31
2022/01/13 05:05:04;;;;;;;35.47;18.80;;;1.90;99.90;;;;;;2622289;46;20855;31
2022/01/13 05:07:38;;;;;;;40.67;21.27;;;1.90;99.90;;;;;;2701931;39;20725;31
2022/01/13 05:10:17;;;;;;;;;;;1.90;99.90;;;;;;2603712;54;20026;31
2022/01/13 05:12:57;;;;;;;37.33;19.10;;;1.90;99.90;;;;;;2603170;54;20739;31
2022/01/13 05:15:34;;;;;;;34.95;20.63;;;1.90;99.90;;;;;;2603297;54;19964;31
2022/01/13 05:21:04;;;;;;;35.70;20.85;;;1.90;99.90;;;;;;2603437;54;20049;31
2022/01/13 05:23:39;;;;;;;36.63;20.08;;;1.90;99.90;;;;;;2603275;54;21335;31
2022/01/13 05:26:16;;;;;;;40.35;23.10;;;1.90;99.90;;;;;;2621723;46;20030;31
2022/01/13 05:31:21;;;;;;;36.13;19.43;;;1.90;99.90;;;;;;2603234;54;20022;31
2022/01/13 05:33:58;;;;;;;32.05;18.52;;;2.00;99.90;;;;;;2621541;46;21109;31
2022/01/13 05:36:33;;;;;;;34.13;18.30;;;2.00;99.90;;;;;;2603354;54;20026;31
2022/01/13 05:41:40;;;;;;;36.78;18.75;;;2.00;99.90;;;;;;2603131;54;20026;31
2022/01/13 05:44:14;;;;;;;31.48;18.30;;;2.00;99.90;;;;;;2603136;54;20028;31
2022/01/13 05:46:50;;;;;;;33.13;17.08;;;2.00;99.90;;;;;;2603160;54;20030;31
2022/01/13 05:49:27;;;;;;;30.70;18.77;;;2.10;99.90;;;;;;2603396;54;20030;31
2022/01/13 05:52:03;;;;;;;30.92;19.02;;;2.10;99.90;;;;;;2603064;54;20128;31
2022/01/13 05:54:37;;;;;;;32.00;19.50;;;2.10;99.90;;;;;;2602971;54;20027;31
2022/01/13 05:57:16;;;;;;;33.28;19.15;;;2.10;99.90;;;;;;2621629;46;20066;31
2022/01/13 05:59:53;;;;;;;28.38;18.00;;;2.10;99.90;;;;;;2602479;54;20120;31
2022/01/13 06:02:42;;;;;;;32.08;17.35;;;2.10;99.90;;;;;;2603112;54;20113;31
2022/01/13 06:05:21;;;;;;;31.97;17.90;;;2.10;99.90;;;;;;2602866;54;20081;31
2022/01/13 06:07:56;;;;;;;30.35;16.70;;;2.10;99.90;;;;;;2603072;54;20018;31
2022/01/13 06:10:34;;;;;;;27.90;17.70;;;2.20;99.90;;;;;;2621425;47;20859;31
2022/01/13 06:13:17;;;;;;;32.05;17.80;;;2.20;99.90;;;;;;2603250;54;20279;31
2022/01/13 06:15:51;;;;;;;30.20;17.15;;;2.10;99.90;;;;;;2603113;54;20883;31
2022/01/13 06:18:35;;;;;;;28.85;18.25;;;2.20;99.90;;;;;;2621415;47;20026;31
2022/01/13 06:21:09;;;;;;;27.85;17.15;;;2.20;99.90;;;;;;2603398;54;20030;31
2022/01/13 06:23:44;;;;;;;32.92;18.08;;;2.20;99.90;;;;;;2603200;54;20031;31
2022/01/13 06:26:19;;;;;;;26.65;17.20;;;2.20;99.90;;;;;;2603002;54;20093;31
2022/01/13 06:29:02;;;;;;;31.85;19.25;;;2.20;99.90;;;;;;2603075;54;20116;31
2022/01/13 06:31:38;;;;;;;30.13;16.95;;;2.20;99.90;;;;;;2621294;47;20023;31
2022/01/13 06:34:19;;;;;;;31.15;16.95;;;2.30;99.90;;;;;;2602882;54;20031;31
2022/01/13 06:36:55;;;;;;;33.03;17.98;;;2.20;99.90;;;;;;2603012;54;20027;31
2022/01/13 06:39:40;;;;;;;34.50;17.47;;;2.20;99.90;;;;;;2602854;54;20870;31
2022/01/13 06:42:27;;;;;;;29.40;16.93;;;2.30;99.90;;;;;;2621349;47;20026;31
2022/01/13 06:45:10;;;;;;;30.88;18.00;;;2.30;99.90;;;;;;2603041;54;20033;31
2022/01/13 06:47:49;;;;;;;27.35;17.23;;;2.30;99.90;;;;;;2602887;54;20946;31
2022/01/13 06:50:24;;;;;;;28.90;17.38;;;2.30;99.90;;;;;;2603142;54;21865;31
2022/01/13 06:52:59;;;;;;;27.83;16.95;;;2.30;99.90;;;;;;2602548;54;20042;31
2022/01/13 06:55:35;;;;;;;30.05;17.10;;;2.30;99.90;;;;;;2602742;54;20784;31
2022/01/13 06:58:12;;;;;;;31.45;16.27;;;2.40;99.90;;;;;;2621374;47;20951;31
2022/01/13 07:00:51;;;;;;;29.30;15.77;;;2.40;99.90;;;;;;2602996;54;20766;31
2022/01/13 07:03:26;;;;;;;29.95;16.67;;;2.40;99.90;;;;;;2602543;54;20910;31
2022/01/13 07:08:39;;;;;;;35.70;16.95;;;2.40;99.90;;;;;;2602783;54;20023;31
2022/01/13 07:11:29;;;;;;;28.77;16.42;;;2.50;99.90;;;;;;2602813;54;20110;31
2022/01/13 07:14:08;;;;;;;30.10;16.23;;;2.50;99.90;;;;;;2620960;47;20970;31
2022/01/13 07:16:47;;;;;;;29.40;16.33;;;2.50;99.90;;;;;;2603816;54;20249;31
2022/01/13 07:19:21;;;;;;;30.83;16.27;;;2.60;99.90;;;;;;2603749;54;20254;31
2022/01/13 07:21:57;;;;;;;28.83;15.48;;;2.50;99.90;;;;;;2621979;46;20046;31
2022/01/13 07:24:33;;;;;;;28.58;15.90;;;2.50;99.90;;;;;;2603721;54;20049;31
2022/01/13 07:27:08;;;;;;;29.05;17.50;;;2.60;99.90;;;;;;2603621;54;20060;31
2022/01/13 07:29:44;;;;;;;32.20;16.70;;;2.60;99.90;;;;;;2622343;46;20796;31
2022/01/13 07:32:22;;;;;;;31.00;18.20;;;2.60;99.90;;;;;;2603764;54;20065;31
2022/01/13 07:35:01;;;;;;;27.35;16.10;;;2.60;99.90;;;;;;2603645;54;20032;31
2022/01/13 07:37:44;;;;;;;29.88;16.50;;;2.60;99.90;;;;;;2603557;54;19989;31
2022/01/13 07:40:23;;;;;;;28.08;17.13;;;2.70;99.90;;;;;;2603567;54;20135;31
2022/01/13 07:43:10;;;;;;;;;;;;;;;;;;;;;
2022/01/13 07:45:54;;;;;;;31.33;16.00;;;2.80;99.90;;;;;;2621388;46;20022;31
2022/01/13 07:48:37;;;;;;;27.00;16.05;;;2.90;99.90;;;;;;2621947;46;20100;31
2022/01/13 07:51:12;;;;;;;27.95;18.52;;;3.00;99.90;;;;;;2603554;54;20030;31
2022/01/13 08:00:37;;;;;;;25.00;15.20;;;3.00;99.90;;;;;;2603365;54;20030;31
2022/01/13 08:23:29;;;;;;;23.50;13.05;;;3.10;99.90;;;;;;2619302;46;20153;31
2022/01/13 08:35:43;;;;;;;22.10;11.70;;;3.20;99.90;;;;;;2621562;46;20034;31
2022/01/13 08:38:24;;;;;;;22.17;12.40;;;3.30;99.90;;;;;;2621322;46;20918;31
2022/01/13 08:41:06;;;;;;;22.30;11.87;;;3.30;99.90;;;;;;2621265;46;20926;31
2022/01/13 08:43:51;;;;;;;24.77;11.45;;;3.40;99.90;;;;;;2603346;54;20069;31
2022/01/13 08:46:34;;;;;;;24.75;12.30;;;3.40;99.90;;;;;;2603428;54;20034;31
2022/01/13 08:49:12;;;;;;;30.90;12.70;;;3.40;99.90;;;;;;2603363;54;20691;31
2022/01/13 08:51:53;;;;;;;21.10;10.35;;;3.40;99.90;;;;;;2603362;54;20057;31
2022/01/13 08:54:31;;;;;;;23.95;12.63;;;3.40;99.90;;;;;;2603260;54;20026;31
2022/01/13 09:00:06;;;;;;;20.95;10.95;;;3.40;99.90;;;;;;2602438;54;20041;31
2022/01/13 09:05:42;;;;;;;21.23;11.15;;;3.50;99.90;;;;;;2600686;54;20068;31
2022/01/13 09:08:21;;;;;;;23.57;12.07;;;3.50;99.90;;;;;;2620276;46;20026;31
2022/01/13 09:10:58;;;;;;;23.85;12.50;;;3.50;99.90;;;;;;2603194;54;20071;31
2022/01/13 09:13:37;;;;;;;18.83;10.75;;;3.50;99.90;;;;;;2603134;54;20805;31
2022/01/13 09:16:20;;;;;;;25.60;12.25;;;3.50;99.90;;;;;;2603076;54;20089;31
2022/01/13 09:19:07;;;;;;;23.90;12.77;;;3.50;99.90;;;;;;2621843;46;20760;31
2022/01/13 09:21:47;;;;;;;23.50;12.70;;;3.60;99.90;;;;;;2603276;54;20030;31
2022/01/13 09:27:03;;;;;;;23.42;13.50;;;3.50;99.90;;;;;;2603412;54;20072;31
2022/01/13 09:29:37;;;;;;;23.02;12.52;;;3.50;99.90;;;;;;2603375;54;20825;31
2022/01/13 09:32:16;;;;;;;24.02;12.30;;;3.50;99.90;;;;;;2621879;46;20037;31
2022/01/13 09:34:57;;;;;;;21.42;12.65;;;3.50;99.90;;;;;;2612472;46;20018;31
2022/01/13 09:37:48;;;;;;;26.80;13.10;;;3.60;99.90;;;;;;2603251;54;20105;31
2022/01/13 09:40:28;;;;;;;26.40;13.50;;;3.50;99.90;;;;;;2603219;54;20034;31
2022/01/13 09:43:08;;;;;;;22.92;12.90;;;3.50;99.90;;;;;;2621514;46;20022;31
2022/01/13 09:48:53;;;;;;;24.63;14.82;;;3.50;99.90;;;;;;2603099;54;20878;31
2022/01/13 09:51:31;;;;;;;27.38;13.75;;;3.50;99.90;;;;;;2607106;46;20035;31
2022/01/13 09:54:14;;;;;;;26.73;13.48;;;3.50;99.90;;;;;;2621240;46;20884;31
2022/01/13 09:59:44;;;;;;;24.58;12.82;;;3.50;99.90;;;;;;2604559;46;20031;31
2022/01/13 10:02:20;;;;;;;24.40;12.57;;;3.50;99.90;;;;;;2602980;54;20089;31
2022/01/13 10:04:57;;;;;;;21.65;13.07;;;3.50;99.90;;;;;;2603022;54;20033;31
2022/01/13 10:07:38;;;;;;;21.77;12.48;;;3.50;99.90;;;;;;2603044;54;20087;31
2022/01/13 10:10:31;;;;;;;25.35;13.13;;;3.50;99.90;;;;;;2621181;47;20022;31
2022/01/13 10:13:23;;;;;;;25.05;13.55;;;3.50;99.90;;;;;;2603059;54;20022;31
2022/01/13 10:16:54;;;;;;;26.83;14.10;;;3.50;99.90;;;;;;2621017;47;20887;31
2022/01/13 10:19:46;;;;;;;26.83;13.93;;;3.50;99.90;;;;;;2621380;47;20260;31
2022/01/13 10:22:26;;;;;;;25.38;12.88;;;3.50;99.90;;;;;;2604098;47;20033;31
2022/01/13 10:25:08;;;;;;;24.83;12.48;;;3.70;99.90;;;;;;2603272;54;20058;31
2022/01/13 10:27:44;;;;;;;22.25;12.93;;;3.70;99.90;;;;;;2621466;47;20027;31
2022/01/13 10:30:22;;;;;;;23.15;12.95;;;3.80;99.90;;;;;;2602976;54;20032;31
2022/01/13 10:33:00;;;;;;;27.35;14.70;;;3.70;99.90;;;;;;2602204;54;20077;31
2022/01/13 10:38:09;;;;;;;21.77;13.35;;;3.80;99.90;;;;;;2602386;54;20855;31
2022/01/13 10:40:49;;;;;;;24.35;12.98;;;3.70;99.90;;;;;;2602329;54;20371;31
2022/01/13 10:44:12;;;;;;;23.10;12.70;;;3.80;99.90;;;;;;2621426;47;20938;31
2022/01/13 10:47:02;;;;;;;21.92;12.02;;;3.80;99.90;;;;;;2602692;54;20027;31
2022/01/13 10:49:37;;;;;;;28.20;15.77;;;3.80;99.90;;;;;;2603002;54;20033;31
2022/01/13 10:52:25;;;;;;;23.45;13.82;;;3.80;99.90;;;;;;2603560;54;20072;31
2022/01/13 10:55:03;;;;;;;20.60;12.13;;;3.90;99.90;;;;;;2603905;54;20767;31
2022/01/13 10:57:41;;;;;;;25.15;12.60;;;3.80;99.90;;;;;;2603723;54;20031;31
2022/01/13 11:00:22;;;;;;;23.83;11.77;;;3.90;99.90;;;;;;2601568;54;20866;31
2022/01/13 11:03:14;;;;;;;26.07;13.23;;;3.90;99.90;;;;;;2603944;46;20847;31
2022/01/13 11:05:52;;;;;;;22.83;11.85;;;4.00;99.90;;;;;;2601652;54;20103;31
2022/01/13 11:08:30;;;;;;;22.55;12.50;;;4.10;99.90;;;;;;2601204;54;20180;31
2022/01/13 11:11:08;;;;;;;20.90;13.55;;;4.10;99.90;;;;;;2601089;54;20900;31
2022/01/13 11:13:53;;;;;;;26.27;13.13;;;4.00;99.90;;;;;;2601263;54;20922;31
2022/01/13 11:16:30;;;;;;;20.95;12.35;;;4.10;99.90;;;;;;2600942;54;20262;31
2022/01/13 11:19:07;;;;;;;27.20;13.05;;;4.20;99.90;;;;;;2600992;54;20033;31
2022/01/13 11:24:15;;;;;;;19.53;12.47;;;4.20;99.90;;;;;;2601085;54;19934;31
2022/01/13 11:26:52;;;;;;;22.13;12.27;;;4.20;99.90;;;;;;2601132;54;20831;31
2022/01/13 11:29:36;;;;;;;20.25;13.45;;;4.20;99.90;;;;;;2601301;54;20064;31
2022/01/13 11:32:13;;;;;;;22.83;12.55;;;4.20;99.90;;;;;;2602792;54;22523;31
2022/01/13 11:34:48;;;;;;;24.92;12.63;;;4.10;99.90;;;;;;2621678;46;20057;31
2022/01/13 11:37:31;;;;;;;23.58;12.32;;;4.10;99.90;;;;;;2621934;46;20030;31
2022/01/13 11:40:08;;;;;;;24.65;13.02;;;4.00;99.90;;;;;;2701965;39;20512;31
2022/01/13 11:43:06;;;;;;;25.08;13.00;;;4.10;99.90;;;;;;2603682;54;20600;31
2022/01/13 11:45:48;;;;;;;22.90;12.70;;;4.10;99.90;;;;;;2603546;54;20052;31
2022/01/13 11:48:26;;;;;;;24.33;13.88;;;4.00;99.90;;;;;;2603555;54;20900;31
2022/01/13 11:51:18;;;;;;;21.80;13.05;;;4.10;99.90;;;;;;2621615;46;20034;31
2022/01/13 11:53:57;;;;;;;21.10;11.80;;;4.10;99.90;;;;;;2603631;54;20089;31
2022/01/13 11:56:35;;;;;;;22.00;13.10;;;4.00;99.90;;;;;;2603640;54;20853;31
2022/01/13 11:59:12;;;;;;;23.05;13.60;;;4.00;99.90;;;;;;2603756;54;20247;31
2022/01/13 12:02:24;;;;;;;20.98;11.73;;;4.00;99.90;;;;;;2603334;54;20029;31
2022/01/13 12:05:04;;;;;;;21.23;12.77;;;4.00;99.90;;;;;;2603467;54;20038;31
2022/01/13 12:07:39;;;;;;;21.20;13.30;;;4.10;99.90;;;;;;2603575;54;20037;31
2022/01/13 12:10:50;;;;;;;22.60;12.23;;;4.10;99.90;;;;;;2603485;54;20062;31
2022/01/13 12:13:39;;;;;;;19.00;11.73;;;4.10;99.90;;;;;;2603454;54;20031;31
2022/01/13 12:22:50;;;;;;;22.80;11.98;;;4.10;99.90;;;;;;2603415;54;20291;31
2022/01/13 12:25:36;;;;;;;21.23;11.97;;;4.20;99.90;;;;;;2792022;31;21201;31
2022/01/13 12:31:37;;;;;;;20.60;12.35;;;4.20;99.90;;;;;;2621899;46;20026;31
2022/01/13 12:34:22;;;;;;;19.60;11.87;;;4.30;99.90;;;;;;2603323;54;20029;31
2022/01/13 12:36:59;;;;;;;16.60;10.60;;;4.30;99.90;;;;;;2603631;54;20836;31
2022/01/13 12:39:42;;;;;;;23.33;11.40;;;4.30;99.90;;;;;;2603412;54;20073;31
2022/01/13 12:42:26;;;;;;;25.95;12.40;;;4.30;99.90;;;;;;2603200;54;20049;31
2022/01/13 12:47:48;;;;;;;22.42;12.85;;;4.40;99.90;;;;;;2603614;54;20258;31
2022/01/13 12:50:27;;;;;;;23.17;11.85;;;4.50;99.90;;;;;;2603455;54;20808;31
2022/01/13 12:53:16;;;;;;;22.97;12.10;;;4.50;99.90;;;;;;2603434;54;20029;31
2022/01/13 12:55:50;;;;;;;23.88;11.82;;;4.50;99.90;;;;;;2621539;46;20049;31
2022/01/13 12:58:30;;;;;;;24.92;11.93;;;4.50;99.90;;;;;;2773048;31;20598;31
2022/01/13 13:01:08;;;;;;;20.40;11.48;;;4.50;99.90;;;;;;2603371;54;20030;31
2022/01/13 13:03:46;;;;;;;21.80;10.52;;;4.50;99.90;;;;;;2603203;54;20038;31
2022/01/13 13:06:40;;;;;;;23.50;12.38;;;4.50;99.90;;;;;;2603175;54;20022;31
2022/01/13 13:09:20;;;;;;;21.95;13.07;;;4.60;99.90;;;;;;2603146;54;20650;31
2022/01/13 13:11:59;;;;;;;19.23;11.40;;;4.50;99.90;;;;;;2602673;54;20140;31
2022/01/13 13:15:39;;;;;;;20.55;11.75;;;4.50;99.90;;;;;;2603494;54;20883;31
2022/01/13 13:17:37;;;;;;;21.00;11.45;;;4.60;99.90;;;;;;2603258;54;20045;31
2022/01/13 13:20:25;;;;;;;22.65;12.23;;;4.50;99.90;;;;;;2621789;46;20030;31
2022/01/13 13:23:03;;;;;;;27.08;13.48;;;4.50;99.90;;;;;;2603267;54;20030;31
2022/01/13 13:25:43;;;;;;;24.80;13.38;;;4.50;99.90;;;;;;2603338;54;20921;31
2022/01/13 13:28:31;;;;;;;20.30;11.45;;;4.40;99.90;;;;;;2603194;54;21036;31
2022/01/13 13:31:11;;;;;;;23.10;11.48;;;4.40;99.90;;;;;;2603228;54;20034;31
2022/01/13 13:34:03;;;;;;;20.50;13.23;;;4.40;99.90;;;;;;2603283;54;20756;31
2022/01/13 13:36:42;;;;;;;22.73;11.43;;;4.40;99.90;;;;;;2620493;46;20445;31
2022/01/13 13:39:17;;;;;;;20.98;11.35;;;4.40;99.90;;;;;;2601738;54;20053;31
2022/01/13 13:41:53;;;;;;;18.88;10.35;;;4.40;99.90;;;;;;2602269;54;20030;31
2022/01/13 13:44:32;;;;;;;18.73;11.70;;;4.40;99.90;;;;;;2601234;54;20023;31
2022/01/13 13:47:19;;;;;;;16.02;10.60;;;4.40;99.90;;;;;;2602054;54;20869;31
2022/01/13 13:52:40;;;;;;;19.83;10.55;;;4.40;99.90;;;;;;2601239;54;20206;31
2022/01/13 13:55:18;;;;;;;18.00;9.70;;;4.40;99.90;;;;;;2620572;46;20911;31
2022/01/13 14:04:32;;;;;;;21.10;10.60;;;4.40;99.90;;;;;;2603789;39;20361;31
2022/01/13 14:07:33;;;;;;;17.85;9.98;;;4.40;99.90;;;;;;2601860;54;19938;31
2022/01/13 14:10:07;;;;;;;21.05;10.00;;;4.30;99.90;;;;;;2601817;54;20027;31
2022/01/13 14:12:55;;;;;;;18.17;10.10;;;4.40;99.90;;;;;;2601734;54;20029;31
2022/01/13 14:15:42;;;;;;;16.80;9.30;;;4.40;99.90;;;;;;2619368;47;20026;31
2022/01/13 14:21:13;;;;;;;22.25;10.15;;;4.50;99.90;;;;;;2601607;54;20039;31
2022/01/13 14:23:48;;;;;;;18.33;9.40;;;4.50;99.90;;;;;;2633149;31;20057;31
2022/01/13 14:26:23;;;;;;;16.38;8.60;;;4.60;99.90;;;;;;2603311;54;20026;31
2022/01/13 14:29:01;;;;;;;22.10;10.45;;;4.60;99.90;;;;;;2603758;54;20080;31
2022/01/13 14:31:37;;;;;;;20.55;10.50;;;4.60;99.90;;;;;;2603753;54;20068;31
2022/01/13 14:34:11;;;;;;;;;;;4.50;99.90;;;;;;2603991;54;20791;31
2022/01/13 14:36:47;;;;;;;17.38;8.90;;;4.50;99.90;;;;;;2603841;54;19936;31
2022/01/13 14:39:22;;;;;;;23.33;8.95;;;4.50;99.90;;;;;;2603621;54;20914;31
2022/01/13 14:41:57;;;;;;;19.30;8.43;;;4.40;99.90;;;;;;2603502;54;20833;31
2022/01/13 14:44:34;;;;;;;16.70;9.48;;;4.40;99.90;;;;;;2603558;54;20037;31
2022/01/13 14:47:10;;;;;;;17.70;9.82;;;4.40;99.90;;;;;;2603898;54;20847;31
2022/01/13 14:49:45;;;;;;;14.85;8.40;;;4.40;99.90;;;;;;2603509;54;20914;31
2022/01/13 14:52:20;;;;;;;15.88;8.70;;;4.30;99.90;;;;;;2603637;54;20762;31
2022/01/13 14:54:56;;;;;;;20.00;8.93;;;4.30;99.90;;;;;;2622245;46;20924;31
2022/01/13 14:57:34;;;;;;;17.55;8.82;;;4.20;99.90;;;;;;2603800;54;20046;31
2022/01/13 15:00:18;;;;;;;18.33;8.23;;;4.20;99.90;;;;;;2622491;46;20030;31
2022/01/13 15:05:25;;;;;;;17.00;8.90;;;4.10;99.90;;;;;;2603601;54;20796;31
2022/01/13 15:08:02;;;;;;;14.87;8.13;;;4.10;99.90;;;;;;2603658;54;20027;31
2022/01/13 15:10:38;;;;;;;20.63;9.40;;;4.10;99.90;;;;;;2603830;54;20773;31
2022/01/13 15:13:15;;;;;;;17.52;8.70;;;4.00;99.90;;;;;;2603782;54;20798;31
2022/01/13 15:15:54;;;;;;;18.38;8.85;;;4.00;99.90;;;;;;2602703;54;20750;31
2022/01/13 15:18:32;;;;;;;18.83;8.18;;;4.00;99.90;;;;;;2603699;54;20034;31
2022/01/13 15:21:28;;;;;;;17.20;9.07;;;4.00;99.90;;;;;;2603700;54;20544;31
2022/01/13 15:24:04;;;;;;;17.52;7.78;;;3.90;99.90;;;;;;2603623;54;20036;31
2022/01/13 15:26:39;;;;;;;18.05;9.60;;;3.90;99.90;;;;;;2622176;46;20026;31
2022/01/13 15:29:13;;;;;;;20.67;10.23;;;3.90;99.90;;;;;;2603612;54;20033;31
2022/01/13 15:31:51;;;;;;;17.37;8.97;;;3.90;99.90;;;;;;2622065;46;20078;31
2022/01/13 15:34:33;;;;;;;18.63;8.57;;;3.90;99.90;;;;;;2603567;54;20257;31
2022/01/13 15:37:09;;;;;;;18.80;8.65;;;3.80;99.90;;;;;;2603842;54;20823;31
2022/01/13 15:39:45;;;;;;;15.90;8.55;;;3.70;99.90;;;;;;2603713;54;20868;31
2022/01/13 15:42:26;;;;;;;19.60;8.80;;;3.80;99.90;;;;;;2622204;46;20042;31
2022/01/13 15:45:00;;;;;;;16.60;8.23;;;3.70;99.90;;;;;;2603712;54;20903;31
2022/01/13 15:47:37;;;;;;;21.97;9.67;;;3.70;99.90;;;;;;2621663;46;20089;31
2022/01/13 15:50:16;;;;;;;16.15;8.45;;;3.70;99.90;;;;;;2603496;54;20917;31
2022/01/13 15:52:51;;;;;;;16.17;9.40;;;3.60;99.90;;;;;;2621968;46;20053;31
2022/01/13 15:55:25;;;;;;;18.27;8.80;;;3.60;99.90;;;;;;2603453;54;20879;31
2022/01/13 15:58:03;;;;;;;15.30;8.93;;;3.50;99.90;;;;;;2602622;54;20257;31
2022/01/13 16:00:38;;;;;;;17.23;8.67;;;3.50;99.90;;;;;;2603677;54;20853;31